createdAt,value
2023-02-11T00:00:21.547Z,5.68
2023-02-11T00:02:48.285Z,5.64
2023-02-11T00:05:15.218Z,5.65
2023-02-11T00:07:41.885Z,5.68
2023-02-11T00:10:09.684Z,5.65
2023-02-11T00:12:36.815Z,5.65
2023-02-11T00:15:04.188Z,5.59
2023-02-11T00:17:31.405Z,5.52
2023-02-11T00:19:58.071Z,5.50
2023-02-11T00:22:24.717Z,5.53
2023-02-11T00:24:51.337Z,5.44
2023-02-11T00:27:18.047Z,5.49
2023-02-11T00:29:44.659Z,5.44
2023-02-11T00:32:11.280Z,5.43
2023-02-11T00:34:37.920Z,5.46
2023-02-11T00:37:04.796Z,5.44
2023-02-11T00:39:31.475Z,5.40
2023-02-11T00:41:58.334Z,5.28
2023-02-11T00:44:25.155Z,5.34
2023-02-11T00:46:51.781Z,5.40
2023-02-11T00:49:18.390Z,5.45
2023-02-11T00:51:47.552Z,5.43
2023-02-11T00:54:14.261Z,5.37
2023-02-11T00:56:40.913Z,5.40
2023-02-11T00:59:07.584Z,5.35
2023-02-11T01:01:34.309Z,5.38
2023-02-11T01:04:02.334Z,5.33
2023-02-11T01:06:29.006Z,5.31
2023-02-11T01:08:55.711Z,5.28
2023-02-11T01:11:23.239Z,5.25
2023-02-11T01:13:50.047Z,5.30
2023-02-11T01:16:17.313Z,5.34
2023-02-11T01:18:46.965Z,5.32
2023-02-11T01:21:14.453Z,5.26
2023-02-11T01:23:41.136Z,5.28
2023-02-11T01:26:07.837Z,5.16
2023-02-11T01:28:34.602Z,5.10
2023-02-11T01:31:01.844Z,5.22
2023-02-11T01:33:28.653Z,5.16
2023-02-11T01:35:55.257Z,5.15
2023-02-11T01:38:24.203Z,5.16
2023-02-11T01:40:55.081Z,5.26
2023-02-11T01:43:22.017Z,5.24
2023-02-11T01:45:48.920Z,5.22
2023-02-11T01:48:46.888Z,5.12
2023-02-11T01:51:17.075Z,5.26
2023-02-11T01:53:44.317Z,5.30
2023-02-11T01:56:10.934Z,5.28
2023-02-11T01:58:39.117Z,5.17
2023-02-11T02:01:05.762Z,5.17
2023-02-11T02:03:32.441Z,5.27
2023-02-11T02:06:04.001Z,5.24
2023-02-11T02:08:41.214Z,5.01
2023-02-11T02:11:07.974Z,4.99
2023-02-11T02:13:34.851Z,5.10
2023-02-11T02:16:03.448Z,5.10
2023-02-11T02:18:51.593Z,5.22
2023-02-11T02:21:36.033Z,5.17
2023-02-11T02:24:20.911Z,5.15
2023-02-11T02:27:16.417Z,5.14
2023-02-11T02:29:58.155Z,4.99
2023-02-11T02:32:43.346Z,5.21
2023-02-11T02:35:36.113Z,5.26
2023-02-11T02:38:11.183Z,5.24
2023-02-11T02:40:45.330Z,5.24
2023-02-11T02:43:12.035Z,5.23
2023-02-11T02:45:38.700Z,5.23
2023-02-11T02:48:05.374Z,5.17
2023-02-11T02:50:36.488Z,5.14
2023-02-11T02:53:18.134Z,5.22
2023-02-11T02:56:04.278Z,5.18
2023-02-11T02:58:54.416Z,5.11
2023-02-11T03:01:29.967Z,5.13
2023-02-11T03:03:59.493Z,5.13
2023-02-11T03:06:34.457Z,5.12
2023-02-11T03:09:09.015Z,5.06
2023-02-11T03:11:36.991Z,5.18
2023-02-11T03:14:03.988Z,5.14
2023-02-11T03:16:30.728Z,5.15
2023-02-11T03:19:01.165Z,5.12
2023-02-11T03:21:27.769Z,5.07
2023-02-11T03:23:54.937Z,5.05
2023-02-11T03:26:23.797Z,5.07
2023-02-11T03:29:10.363Z,5.07
2023-02-11T03:31:55.428Z,5.09
2023-02-11T03:34:44.041Z,5.01
2023-02-11T03:37:18.043Z,5.03
2023-02-11T03:39:47.806Z,5.01
2023-02-11T03:42:14.562Z,5.01
2023-02-11T03:44:44.309Z,4.97
2023-02-11T03:47:10.965Z,4.98
2023-02-11T03:49:38.179Z,4.95
2023-02-11T03:52:04.921Z,4.97
2023-02-11T03:54:31.719Z,4.94
2023-02-11T03:57:00.124Z,4.98
2023-02-11T03:59:26.774Z,4.92
2023-02-11T04:01:53.449Z,4.93
2023-02-11T04:04:20.356Z,4.92
2023-02-11T04:06:47.059Z,4.91
2023-02-11T04:09:13.715Z,4.88
2023-02-11T04:11:40.357Z,4.84
2023-02-11T04:14:07.010Z,4.83
2023-02-11T04:16:33.666Z,4.88
2023-02-11T04:19:00.408Z,4.88
2023-02-11T04:21:27.070Z,4.87
2023-02-11T04:23:53.782Z,4.89
2023-02-11T04:26:20.397Z,4.77
2023-02-11T04:28:47.066Z,4.84
2023-02-11T04:31:13.761Z,4.82
2023-02-11T04:33:40.478Z,4.85
2023-02-11T04:36:07.494Z,4.80
2023-02-11T04:38:34.108Z,4.80
2023-02-11T04:41:00.733Z,4.81
2023-02-11T04:43:27.430Z,4.78
2023-02-11T04:45:57.506Z,4.76
2023-02-11T04:48:24.508Z,4.82
2023-02-11T04:50:51.204Z,4.80
2023-02-11T04:53:17.813Z,4.73
2023-02-11T04:55:44.425Z,4.86
2023-02-11T04:58:11.086Z,4.83
2023-02-11T05:00:37.725Z,4.76
2023-02-11T05:03:04.353Z,4.72
2023-02-11T05:05:31.019Z,4.75
2023-02-11T05:07:57.642Z,4.75
2023-02-11T05:10:24.241Z,4.82
2023-02-11T05:12:50.868Z,4.83
2023-02-11T05:15:17.547Z,4.74
2023-02-11T05:17:44.158Z,4.78
2023-02-11T05:20:10.885Z,4.76
2023-02-11T05:22:37.468Z,4.81
2023-02-11T05:25:04.153Z,4.82
2023-02-11T05:27:30.745Z,4.74
2023-02-11T05:29:57.374Z,4.75
2023-02-11T05:32:23.977Z,4.74
2023-02-11T05:34:50.680Z,4.70
2023-02-11T05:37:17.366Z,4.69
2023-02-11T05:39:43.990Z,4.73
2023-02-11T05:42:10.657Z,4.67
2023-02-11T05:44:37.337Z,4.66
2023-02-11T05:47:03.993Z,4.64
2023-02-11T05:49:30.613Z,4.65
2023-02-11T05:51:57.500Z,4.61
2023-02-11T05:54:24.143Z,4.59
2023-02-11T05:56:50.781Z,4.62
2023-02-11T05:59:17.399Z,4.59
2023-02-11T06:01:44.003Z,4.61
2023-02-11T06:04:10.664Z,4.61
2023-02-11T06:06:37.351Z,4.63
2023-02-11T06:09:04.256Z,4.66
2023-02-11T06:11:30.890Z,4.60
2023-02-11T06:13:57.571Z,4.60
2023-02-11T06:16:24.285Z,4.55
2023-02-11T06:18:50.918Z,4.53
2023-02-11T06:21:17.601Z,4.56
2023-02-11T06:23:44.243Z,4.55
2023-02-11T06:26:16.458Z,4.60
2023-02-11T06:28:43.151Z,4.64
2023-02-11T06:31:10.017Z,4.59
2023-02-11T06:33:36.703Z,4.60
2023-02-11T06:36:03.697Z,4.60
2023-02-11T06:38:30.296Z,4.60
2023-02-11T06:40:56.947Z,4.58
2023-02-11T06:43:23.592Z,4.61
2023-02-11T06:45:56.051Z,4.54
2023-02-11T06:48:23.049Z,4.51
2023-02-11T06:50:49.672Z,4.57
2023-02-11T06:53:16.325Z,4.60
2023-02-11T06:55:43.171Z,4.61
2023-02-11T06:58:09.819Z,4.59
2023-02-11T07:00:36.698Z,4.59
2023-02-11T07:03:03.445Z,4.64
2023-02-11T07:05:30.092Z,4.66
2023-02-11T07:07:57.038Z,4.70
2023-02-11T07:10:23.763Z,4.62
2023-02-11T07:12:50.379Z,4.60
2023-02-11T07:15:17.020Z,4.57
2023-02-11T07:17:43.610Z,4.53
2023-02-11T07:20:10.653Z,4.58
2023-02-11T07:22:37.267Z,4.57
2023-02-11T07:25:04.030Z,4.65
2023-02-11T07:27:30.676Z,4.71
2023-02-11T07:29:57.293Z,4.73
2023-02-11T07:32:23.956Z,4.75
2023-02-11T07:34:50.747Z,4.74
2023-02-11T07:37:17.446Z,4.69
2023-02-11T07:39:44.102Z,4.76
2023-02-11T07:42:10.768Z,4.70
2023-02-11T07:44:37.388Z,4.81
2023-02-11T07:47:04.101Z,4.75
2023-02-11T07:49:30.782Z,4.78
2023-02-11T07:51:57.531Z,4.83
2023-02-11T07:54:24.209Z,4.93
2023-02-11T07:56:50.849Z,4.90
2023-02-11T07:59:17.496Z,4.96
2023-02-11T08:01:44.179Z,4.97
2023-02-11T08:04:10.956Z,5.10
2023-02-11T08:06:41.169Z,5.03
2023-02-11T08:09:08.037Z,5.12
2023-02-11T08:11:34.647Z,5.13
2023-02-11T08:14:01.400Z,5.12
2023-02-11T08:16:30.239Z,5.25
2023-02-11T08:18:57.667Z,5.23
2023-02-11T08:21:24.576Z,5.34
2023-02-11T08:23:51.255Z,5.38
2023-02-11T08:26:19.499Z,5.47
2023-02-11T08:28:46.711Z,5.41
2023-02-11T08:31:21.058Z,5.47
2023-02-11T08:33:47.730Z,5.54
2023-02-11T08:36:16.554Z,5.66
2023-02-11T08:38:43.161Z,5.72
2023-02-11T08:41:09.848Z,5.73
2023-02-11T08:43:36.594Z,5.71
2023-02-11T08:46:03.392Z,5.81
2023-02-11T08:48:30.118Z,5.76
2023-02-11T08:50:56.979Z,5.74
2023-02-11T08:53:23.604Z,5.77
2023-02-11T08:55:51.239Z,5.97
2023-02-11T08:58:19.174Z,5.98
2023-02-11T09:00:46.465Z,6.02
2023-02-11T09:03:13.892Z,6.13
2023-02-11T09:05:47.853Z,6.17
2023-02-11T09:08:14.492Z,5.94
2023-02-11T09:10:41.149Z,5.86
2023-02-11T09:13:07.856Z,6.00
2023-02-11T09:15:34.541Z,6.17
2023-02-11T09:18:01.347Z,6.31
2023-02-11T09:20:28.043Z,6.45
2023-02-11T09:22:54.899Z,6.65
2023-02-11T09:25:21.552Z,6.73
2023-02-11T09:27:48.241Z,6.88
2023-02-11T09:30:15.342Z,6.96
2023-02-11T09:32:41.959Z,7.15
2023-02-11T09:35:08.702Z,7.30
2023-02-11T09:37:37.354Z,7.31
2023-02-11T09:40:04.487Z,7.41
2023-02-11T09:42:43.141Z,7.52
2023-02-11T09:45:24.206Z,7.50
2023-02-11T09:47:59.460Z,7.60
2023-02-11T09:50:28.116Z,7.66
2023-02-11T09:53:00.556Z,7.73
2023-02-11T09:55:35.624Z,7.86
2023-02-11T09:58:03.367Z,7.87
2023-02-11T10:01:08.354Z,7.95
2023-02-11T10:03:46.830Z,8.05
2023-02-11T10:06:31.795Z,8.17
2023-02-11T10:09:04.209Z,8.23
2023-02-11T10:11:36.805Z,8.29
2023-02-11T10:14:15.462Z,8.16
2023-02-11T10:17:21.636Z,8.22
2023-02-11T10:20:06.484Z,8.28
2023-02-11T10:22:36.692Z,8.35
2023-02-11T10:25:13.008Z,8.46
2023-02-11T10:27:39.909Z,8.48
2023-02-11T10:30:07.880Z,8.49
2023-02-11T10:32:53.071Z,8.44
2023-02-11T10:35:21.632Z,8.54
2023-02-11T10:37:48.637Z,8.60
2023-02-11T10:40:19.569Z,8.60
2023-02-11T10:42:55.665Z,8.73
2023-02-11T10:45:30.431Z,8.86
2023-02-11T10:47:57.076Z,8.93
2023-02-11T10:50:31.281Z,8.91
2023-02-11T10:53:19.998Z,8.87
2023-02-11T10:55:56.394Z,8.87
2023-02-11T10:59:05.593Z,8.89
2023-02-11T11:01:52.857Z,8.95
2023-02-11T11:04:27.276Z,8.91
2023-02-11T11:06:53.983Z,9.02
2023-02-11T11:09:28.030Z,9.07
2023-02-11T11:11:54.689Z,9.10
2023-02-11T11:14:21.426Z,9.06
2023-02-11T11:16:54.623Z,8.96
2023-02-11T11:19:24.866Z,9.04
2023-02-11T11:21:55.759Z,9.05
2023-02-11T11:24:29.428Z,8.96
2023-02-11T11:26:57.662Z,9.11
2023-02-11T11:29:50.424Z,8.98
2023-02-11T11:32:28.037Z,9.11
2023-02-11T11:34:55.797Z,9.18
2023-02-11T11:37:22.272Z,9.19
2023-02-11T11:39:57.935Z,9.36
2023-02-11T11:42:29.959Z,9.42
2023-02-11T11:45:18.748Z,9.44
2023-02-11T11:47:48.441Z,9.50
2023-02-11T11:50:21.900Z,9.57
2023-02-11T11:53:05.137Z,9.64
2023-02-11T11:56:02.623Z,9.62
2023-02-11T11:58:29.430Z,9.68
2023-02-11T12:01:15.217Z,9.64
2023-02-11T12:04:09.659Z,9.69
2023-02-11T12:07:03.444Z,9.78
2023-02-11T12:09:38.665Z,9.83
2023-02-11T12:12:25.881Z,9.96
2023-02-11T12:15:14.178Z,10.03
2023-02-11T12:17:52.266Z,9.88
2023-02-11T12:20:56.515Z,9.90
2023-02-11T12:23:47.610Z,9.92
2023-02-11T12:26:20.489Z,9.98
2023-02-11T12:28:53.091Z,10.06
2023-02-11T12:31:34.882Z,10.10
2023-02-11T12:34:33.957Z,10.15
2023-02-11T12:37:10.896Z,10.24
2023-02-11T12:39:54.353Z,10.36
2023-02-11T12:42:38.630Z,10.39
2023-02-11T12:45:12.001Z,10.34
2023-02-11T12:48:00.896Z,10.34
2023-02-11T12:50:36.009Z,10.33
2023-02-11T12:53:28.899Z,10.37
2023-02-11T12:56:00.942Z,10.39
2023-02-11T12:58:42.799Z,10.40
2023-02-11T13:01:16.086Z,10.48
2023-02-11T13:03:56.311Z,10.52
2023-02-11T13:06:28.330Z,10.47
2023-02-11T13:08:59.529Z,10.52
2023-02-11T13:11:47.297Z,10.45
2023-02-11T13:14:32.305Z,10.50
2023-02-11T13:16:59.055Z,10.50
2023-02-11T13:19:37.633Z,10.54
2023-02-11T13:22:04.127Z,10.48
2023-02-11T13:24:42.454Z,10.51
2023-02-11T13:27:48.236Z,10.61
2023-02-11T13:30:33.514Z,10.69
2023-02-11T13:33:00.109Z,10.66
2023-02-11T13:35:33.728Z,10.68
2023-02-11T13:38:03.728Z,10.60
2023-02-11T13:40:38.199Z,10.46
2023-02-11T13:43:06.044Z,10.52
2023-02-11T13:45:42.877Z,10.50
2023-02-11T13:48:22.580Z,10.52
2023-02-11T13:50:50.815Z,10.47
2023-02-11T13:53:17.622Z,10.52
2023-02-11T13:55:48.946Z,10.41
2023-02-11T13:58:16.028Z,10.40
2023-02-11T14:00:47.658Z,10.34
2023-02-11T14:03:14.169Z,10.36
2023-02-11T14:05:40.771Z,10.32
2023-02-11T14:08:10.265Z,10.35
2023-02-11T14:10:42.826Z,10.31
2023-02-11T14:13:54.284Z,10.20
2023-02-11T14:16:36.388Z,10.22
2023-02-11T14:19:04.418Z,10.18
2023-02-11T14:21:38.349Z,10.18
2023-02-11T14:24:04.973Z,10.28
2023-02-11T14:26:52.033Z,10.23
2023-02-11T14:29:43.897Z,10.26
2023-02-11T14:32:32.699Z,10.22
2023-02-11T14:35:09.904Z,10.29
2023-02-11T14:37:44.379Z,10.32
2023-02-11T14:40:16.673Z,10.28
2023-02-11T14:42:43.313Z,10.26
2023-02-11T14:45:11.366Z,10.30
2023-02-11T14:48:05.129Z,10.25
2023-02-11T14:50:54.262Z,10.23
2023-02-11T14:53:24.543Z,10.24
2023-02-11T14:55:52.188Z,10.27
2023-02-11T14:58:28.953Z,10.33
2023-02-11T15:01:06.422Z,10.31
2023-02-11T15:03:37.777Z,10.31
2023-02-11T15:06:18.026Z,10.31
2023-02-11T15:09:02.885Z,10.31
2023-02-11T15:11:31.664Z,10.24
2023-02-11T15:13:59.809Z,10.21
2023-02-11T15:16:27.217Z,10.24
2023-02-11T15:18:59.453Z,10.20
2023-02-11T15:21:27.747Z,10.19
2023-02-11T15:24:00.590Z,10.24
2023-02-11T15:26:27.345Z,10.17
2023-02-11T15:28:53.971Z,10.23
2023-02-11T15:31:22.526Z,10.21
2023-02-11T15:33:49.696Z,10.26
2023-02-11T15:36:16.752Z,10.22
2023-02-11T15:38:43.468Z,10.22
2023-02-11T15:41:33.984Z,10.28
2023-02-11T15:44:00.945Z,10.28
2023-02-11T15:46:37.729Z,10.29
2023-02-11T15:49:04.431Z,10.23
2023-02-11T15:51:32.503Z,10.28
2023-02-11T15:54:00.645Z,10.27
2023-02-11T15:56:33.702Z,10.23
2023-02-11T15:59:07.413Z,10.16
2023-02-11T16:01:35.175Z,10.13
2023-02-11T16:04:02.228Z,10.15
2023-02-11T16:06:41.552Z,10.08
2023-02-11T16:09:08.010Z,9.98
2023-02-11T16:11:36.424Z,9.90
2023-02-11T16:14:19.426Z,9.82
2023-02-11T16:16:46.698Z,9.77
2023-02-11T16:19:13.349Z,9.76
2023-02-11T16:21:41.844Z,9.69
2023-02-11T16:24:14.878Z,9.62
2023-02-11T16:26:41.522Z,9.50
2023-02-11T16:29:11.768Z,9.47
2023-02-11T16:31:40.273Z,9.50
2023-02-11T16:34:18.114Z,9.44
2023-02-11T16:36:45.229Z,9.39
2023-02-11T16:39:11.926Z,9.27
2023-02-11T16:41:38.767Z,9.20
2023-02-11T16:44:05.423Z,9.16
2023-02-11T16:46:32.135Z,9.17
2023-02-11T16:48:59.065Z,9.12
2023-02-11T16:51:25.685Z,9.07
2023-02-11T16:53:52.342Z,9.02
2023-02-11T16:56:19.131Z,8.88
2023-02-11T16:58:45.778Z,8.73
2023-02-11T17:01:14.073Z,8.73
2023-02-11T17:03:41.064Z,8.67
2023-02-11T17:06:10.637Z,8.52
2023-02-11T17:08:39.823Z,8.45
2023-02-11T17:11:06.758Z,8.37
2023-02-11T17:13:33.653Z,8.30
2023-02-11T17:16:00.327Z,8.33
2023-02-11T17:18:26.995Z,8.23
2023-02-11T17:20:53.651Z,8.23
2023-02-11T17:23:20.305Z,8.13
2023-02-11T17:25:46.913Z,8.08
2023-02-11T17:28:13.633Z,8.10
2023-02-11T17:30:40.776Z,8.02
2023-02-11T17:33:07.386Z,8.06
2023-02-11T17:35:33.976Z,8.02
2023-02-11T17:38:00.621Z,8.02
2023-02-11T17:40:27.269Z,8.00
2023-02-11T17:42:53.949Z,7.95
2023-02-11T17:45:22.386Z,7.91
2023-02-11T17:47:49.210Z,7.95
2023-02-11T17:50:15.909Z,7.97
2023-02-11T17:52:42.574Z,7.85
2023-02-11T17:55:09.215Z,7.85
2023-02-11T17:57:35.832Z,7.86
2023-02-11T18:00:02.866Z,7.85
2023-02-11T18:02:29.509Z,7.86
2023-02-11T18:04:56.208Z,7.76
2023-02-11T18:07:23.182Z,7.68
2023-02-11T18:09:49.877Z,7.68
2023-02-11T18:12:16.530Z,7.74
2023-02-11T18:14:43.175Z,7.70
2023-02-11T18:17:09.874Z,7.73
2023-02-11T18:19:36.527Z,7.72
2023-02-11T18:22:03.251Z,7.72
2023-02-11T18:24:29.966Z,7.67
2023-02-11T18:26:56.644Z,7.67
2023-02-11T18:29:23.298Z,7.64
2023-02-11T18:31:50.069Z,7.54
2023-02-11T18:34:16.830Z,7.54
2023-02-11T18:36:43.488Z,7.56
2023-02-11T18:39:10.117Z,7.61
2023-02-11T18:41:36.746Z,7.63
2023-02-11T18:44:03.733Z,7.58
2023-02-11T18:46:30.581Z,7.52
2023-02-11T18:48:57.294Z,7.55
2023-02-11T18:51:23.997Z,7.53
2023-02-11T18:53:50.660Z,7.52
2023-02-11T18:56:19.629Z,7.58
2023-02-11T18:58:46.744Z,7.53
2023-02-11T19:01:21.080Z,7.56
2023-02-11T19:03:47.890Z,7.57
2023-02-11T19:06:18.907Z,7.57
2023-02-11T19:08:45.861Z,7.57
2023-02-11T19:11:12.936Z,7.58
2023-02-11T19:13:39.762Z,7.48
2023-02-11T19:16:11.464Z,7.53
2023-02-11T19:18:38.362Z,7.48
2023-02-11T19:21:09.389Z,7.36
2023-02-11T19:23:36.123Z,7.44
2023-02-11T19:26:02.748Z,7.46
2023-02-11T19:28:29.448Z,7.48
2023-02-11T19:30:56.264Z,7.37
2023-02-11T19:33:22.968Z,7.28
2023-02-11T19:35:49.802Z,7.31
2023-02-11T19:38:16.596Z,7.34
2023-02-11T19:40:43.224Z,7.32
2023-02-11T19:43:09.940Z,7.36
2023-02-11T19:45:39.611Z,7.32
2023-02-11T19:48:06.372Z,7.19
2023-02-11T19:50:33.074Z,7.13
2023-02-11T19:52:59.726Z,7.10
2023-02-11T19:55:26.417Z,7.11
2023-02-11T19:57:53.047Z,7.06
2023-02-11T20:00:20.091Z,7.15
2023-02-11T20:02:46.887Z,7.15
2023-02-11T20:05:13.590Z,7.10
2023-02-11T20:07:40.319Z,7.04
2023-02-11T20:10:07.732Z,7.07
2023-02-11T20:12:34.370Z,7.10
2023-02-11T20:15:01.171Z,6.99
2023-02-11T20:17:27.817Z,6.95
2023-02-11T20:19:54.509Z,7.00
2023-02-11T20:22:21.142Z,7.01
2023-02-11T20:24:47.819Z,6.98
2023-02-11T20:27:14.457Z,7.08
2023-02-11T20:29:41.080Z,7.07
2023-02-11T20:32:08.034Z,7.02
2023-02-11T20:34:34.945Z,7.10
2023-02-11T20:37:01.629Z,7.05
2023-02-11T20:39:28.333Z,6.99
2023-02-11T20:41:54.976Z,7.01
2023-02-11T20:44:21.795Z,7.00
2023-02-11T20:46:48.493Z,6.95
2023-02-11T20:49:17.125Z,6.90
2023-02-11T20:51:43.966Z,6.82
2023-02-11T20:54:17.936Z,6.81
2023-02-11T20:56:47.741Z,6.79
2023-02-11T20:59:14.809Z,6.75
2023-02-11T21:01:42.900Z,6.81
2023-02-11T21:04:14.413Z,6.78
2023-02-11T21:06:45.669Z,6.80
2023-02-11T21:09:13.932Z,6.75
2023-02-11T21:11:40.822Z,6.73
2023-02-11T21:14:07.499Z,6.79
2023-02-11T21:16:34.199Z,6.83
2023-02-11T21:19:01.264Z,6.81
2023-02-11T21:21:28.000Z,6.70
2023-02-11T21:23:54.742Z,6.73
2023-02-11T21:26:21.589Z,6.74
2023-02-11T21:28:48.380Z,6.76
2023-02-11T21:31:19.976Z,6.73
2023-02-11T21:33:46.755Z,6.66
2023-02-11T21:36:13.354Z,6.61
2023-02-11T21:38:40.033Z,6.58
2023-02-11T21:41:06.760Z,6.65
2023-02-11T21:43:33.468Z,6.59
2023-02-11T21:46:00.139Z,6.64
2023-02-11T21:48:26.799Z,6.58
2023-02-11T21:50:53.501Z,6.61
2023-02-11T21:53:20.117Z,6.65
2023-02-11T21:55:46.790Z,6.60
2023-02-11T21:58:13.447Z,6.61
2023-02-11T22:00:40.133Z,6.61
2023-02-11T22:03:06.824Z,6.51
2023-02-11T22:05:33.483Z,6.58
2023-02-11T22:08:00.108Z,6.63
2023-02-11T22:10:26.731Z,6.59
2023-02-11T22:12:53.644Z,6.61
2023-02-11T22:15:20.279Z,6.66
2023-02-11T22:17:46.947Z,6.61
2023-02-11T22:20:13.576Z,6.50
2023-02-11T22:22:40.245Z,6.57
2023-02-11T22:25:07.291Z,6.36
2023-02-11T22:27:33.935Z,6.43
2023-02-11T22:30:00.543Z,6.39
2023-02-11T22:32:27.198Z,6.43
2023-02-11T22:34:53.826Z,6.50
2023-02-11T22:37:20.590Z,6.49
2023-02-11T22:39:47.373Z,6.54
2023-02-11T22:42:14.022Z,6.54
2023-02-11T22:44:40.686Z,6.53
2023-02-11T22:47:07.379Z,6.53
2023-02-11T22:49:34.066Z,6.57
2023-02-11T22:52:00.737Z,6.49
2023-02-11T22:54:27.387Z,6.33
2023-02-11T22:56:54.002Z,6.47
2023-02-11T22:59:20.783Z,6.57
2023-02-11T23:01:47.694Z,6.53
2023-02-11T23:04:15.205Z,6.52
2023-02-11T23:06:41.931Z,6.58
2023-02-11T23:09:09.414Z,6.58
2023-02-11T23:11:36.038Z,6.55
2023-02-11T23:14:02.767Z,6.55
2023-02-11T23:16:33.148Z,6.53
2023-02-11T23:19:00.730Z,6.39
2023-02-11T23:21:29.107Z,6.40
2023-02-11T23:23:57.579Z,6.34
2023-02-11T23:26:24.336Z,6.35
2023-02-11T23:28:50.991Z,6.33
2023-02-11T23:31:18.841Z,6.33
2023-02-11T23:33:45.616Z,6.35
2023-02-11T23:36:13.564Z,6.33
2023-02-11T23:38:40.229Z,6.36
2023-02-11T23:41:06.857Z,6.36
2023-02-11T23:43:33.459Z,6.35
2023-02-11T23:46:00.168Z,6.42
2023-02-11T23:48:26.993Z,6.34
2023-02-11T23:50:53.631Z,6.39
2023-02-11T23:53:20.272Z,6.43
2023-02-11T23:55:46.920Z,6.39
2023-02-11T23:58:13.993Z,6.35
